Time;durP1;ratioP1;P1;durP2;ratioP2;P2;SDS_P1;SDS_P2;PMS_P1;PMS_P2;Temp;Humidity;BMP_temperature;BMP_pressure;BME280_temperature;BME280_humidity;BME280_pressure;Samples;Min_cycle;Max_cycle;Signal;HPM_P1;HPM_P2
2024/02/10 00:02:39;;;;;;;1999.90;999.90;;;;;;;;;;5059660;28;20726;-67
2024/02/10 00:05:26;;;;;;;1999.90;999.90;;;;;;;;;;5066593;28;20291;-67
2024/02/10 00:08:11;;;;;;;1999.90;999.90;;;;;;;;;;5069549;28;20438;-67
2024/02/10 00:10:56;;;;;;;1999.90;999.90;;;;;;;;;;5065510;28;20210;-67
2024/02/10 00:13:41;;;;;;;1999.90;999.90;;;;;;;;;;5071495;28;20747;-67
2024/02/10 00:16:28;;;;;;;1999.90;999.90;;;;;;;;;;5072104;28;20259;-67
2024/02/10 00:19:13;;;;;;;1999.90;999.90;;;;;;;;;;5063036;28;20205;-67
2024/02/10 00:21:59;;;;;;;1999.90;999.90;;;;;;;;;;5070789;28;20588;-67
2024/02/10 00:24:44;;;;;;;1999.90;999.90;;;;;;;;;;5070696;28;20286;-67
2024/02/10 00:27:29;;;;;;;1999.90;999.90;;;;;;;;;;5064485;28;20222;-67
2024/02/10 00:30:16;;;;;;;1999.90;999.90;;;;;;;;;;5062977;28;20212;-67
2024/02/10 00:33:01;;;;;;;1999.90;999.90;;;;;;;;;;5065607;28;20299;-67
2024/02/10 00:35:46;;;;;;;1999.90;999.90;;;;;;;;;;5072635;28;20573;-67
2024/02/10 00:38:32;;;;;;;1999.90;999.90;;;;;;;;;;5067595;28;20350;-67
2024/02/10 00:41:19;;;;;;;1999.90;999.90;;;;;;;;;;5067149;28;21007;-67
2024/02/10 00:44:04;;;;;;;1999.90;999.90;;;;;;;;;;5069833;28;20229;-67
2024/02/10 00:46:49;;;;;;;1999.90;999.90;;;;;;;;;;5070707;28;20334;-67
2024/02/10 00:49:34;;;;;;;1999.90;999.90;;;;;;;;;;5062228;28;20208;-67
2024/02/10 00:52:18;;;;;;;1999.90;999.90;;;;;;;;;;5071870;28;20225;-67
2024/02/10 00:55:05;;;;;;;1999.90;999.90;;;;;;;;;;5070320;28;20228;-67
2024/02/10 00:57:50;;;;;;;1999.90;999.90;;;;;;;;;;5071079;28;20601;-67
2024/02/10 01:00:36;;;;;;;1999.90;999.90;;;;;;;;;;5065504;28;20643;-67
2024/02/10 01:03:22;;;;;;;1999.90;999.90;;;;;;;;;;5071954;28;20252;-67
2024/02/10 01:06:08;;;;;;;1999.90;999.90;;;;;;;;;;5055390;28;20640;-67
2024/02/10 01:08:52;;;;;;;1999.90;999.90;;;;;;;;;;5071989;28;20298;-67
2024/02/10 01:11:42;;;;;;;1999.90;999.90;;;;;;;;;;5072090;28;20631;-67
2024/02/10 01:14:29;;;;;;;1999.90;999.90;;;;;;;;;;5071831;28;20264;-67
2024/02/10 01:17:14;;;;;;;1999.90;999.90;;;;;;;;;;5071871;28;20283;-67
2024/02/10 01:19:59;;;;;;;1999.90;999.90;;;;;;;;;;5071740;28;20208;-67
2024/02/10 01:22:45;;;;;;;1999.90;999.90;;;;;;;;;;5065628;28;20245;-67
2024/02/10 01:25:31;;;;;;;1999.90;999.90;;;;;;;;;;5064149;28;20247;-67
2024/02/10 01:28:21;;;;;;;1999.90;999.90;;;;;;;;;;5069193;28;20255;-67
2024/02/10 01:31:07;;;;;;;1999.90;999.90;;;;;;;;;;5069350;28;20208;-67
2024/02/10 01:33:52;;;;;;;1999.90;999.90;;;;;;;;;;5055491;28;20225;-67
2024/02/10 01:36:37;;;;;;;1999.90;999.90;;;;;;;;;;5051495;28;20209;-67
2024/02/10 01:39:22;;;;;;;1999.90;999.90;;;;;;;;;;5051280;28;20335;-68
2024/02/10 01:42:07;;;;;;;1999.90;999.90;;;;;;;;;;5051648;28;20255;-67
2024/02/10 01:44:53;;;;;;;1999.90;999.90;;;;;;;;;;5067030;28;20688;-67
2024/02/10 01:47:38;;;;;;;1999.90;999.90;;;;;;;;;;5070909;28;20474;-67
2024/02/10 01:50:23;;;;;;;1999.90;999.90;;;;;;;;;;5071349;28;20259;-67
2024/02/10 01:53:08;;;;;;;1999.90;999.90;;;;;;;;;;5071376;28;20603;-67
2024/02/10 01:55:54;;;;;;;1999.90;999.90;;;;;;;;;;5071719;28;20589;-67
2024/02/10 01:58:39;;;;;;;1999.90;999.90;;;;;;;;;;5071368;28;20204;-67
2024/02/10 02:01:26;;;;;;;1999.90;999.90;;;;;;;;;;5071451;28;20282;-66
2024/02/10 02:04:12;;;;;;;1999.90;999.90;;;;;;;;;;5071318;28;20227;-65
2024/02/10 02:06:57;;;;;;;1999.90;999.90;;;;;;;;;;5071267;28;20315;-67
2024/02/10 02:09:43;;;;;;;1999.90;999.90;;;;;;;;;;5061747;28;20212;-67
2024/02/10 02:12:28;;;;;;;1999.90;999.90;;;;;;;;;;5065620;28;20228;-67
2024/02/10 02:15:13;;;;;;;1999.90;999.90;;;;;;;;;;5069967;28;20232;-67
2024/02/10 02:17:59;;;;;;;1999.90;999.90;;;;;;;;;;5071037;28;20216;-68
2024/02/10 02:20:46;;;;;;;1999.90;999.90;;;;;;;;;;5065364;28;20431;-67
2024/02/10 02:23:34;;;;;;;1999.90;999.90;;;;;;;;;;5062799;28;20336;-67
2024/02/10 02:26:19;;;;;;;1999.90;999.90;;;;;;;;;;5066170;28;20209;-67
2024/02/10 02:29:07;;;;;;;1999.90;999.90;;;;;;;;;;5069727;28;20221;-67
2024/02/10 02:31:53;;;;;;;1999.90;999.90;;;;;;;;;;5073525;28;20204;-67
2024/02/10 02:34:38;;;;;;;1999.90;999.90;;;;;;;;;;5067593;28;20267;-66
2024/02/10 02:37:23;;;;;;;1999.90;999.90;;;;;;;;;;5070353;28;20796;-66
2024/02/10 02:40:10;;;;;;;1999.90;999.90;;;;;;;;;;5072068;28;20306;-67
2024/02/10 02:42:56;;;;;;;1999.90;999.90;;;;;;;;;;5073483;28;20590;-67
2024/02/10 02:45:42;;;;;;;1999.90;999.90;;;;;;;;;;5069248;28;20201;-67
2024/02/10 02:48:27;;;;;;;1999.90;999.90;;;;;;;;;;5066119;28;20229;-67
2024/02/10 02:51:14;;;;;;;1999.90;999.90;;;;;;;;;;5072125;28;20212;-67
2024/02/10 02:53:59;;;;;;;1999.90;999.90;;;;;;;;;;5072714;28;20232;-68
2024/02/10 02:56:46;;;;;;;1999.90;999.90;;;;;;;;;;5072658;28;20217;-67
2024/02/10 02:59:30;;;;;;;1999.90;999.90;;;;;;;;;;5071822;28;20906;-67
2024/02/10 03:02:16;;;;;;;1999.90;999.90;;;;;;;;;;5070588;28;20782;-67
2024/02/10 03:05:04;;;;;;;1999.90;999.90;;;;;;;;;;5072004;28;20598;-67
2024/02/10 03:07:49;;;;;;;1999.90;999.90;;;;;;;;;;5062513;28;20298;-67
2024/02/10 03:10:34;;;;;;;1999.90;999.90;;;;;;;;;;5066100;28;20283;-67
2024/02/10 03:13:20;;;;;;;1999.90;999.90;;;;;;;;;;5069663;28;20237;-67
2024/02/10 03:16:06;;;;;;;1999.90;999.90;;;;;;;;;;5070044;28;20196;-67
2024/02/10 03:18:51;;;;;;;1999.90;999.90;;;;;;;;;;5069032;28;20601;-67
2024/02/10 03:21:36;;;;;;;1999.90;999.90;;;;;;;;;;5066970;28;20292;-67
2024/02/10 03:24:22;;;;;;;1999.90;999.90;;;;;;;;;;5071712;28;20200;-67
2024/02/10 03:27:07;;;;;;;1999.90;999.90;;;;;;;;;;5063708;28;20210;-67
2024/02/10 03:29:53;;;;;;;1999.90;999.90;;;;;;;;;;5066671;28;20408;-67
2024/02/10 03:32:38;;;;;;;1999.90;999.90;;;;;;;;;;5060799;28;20704;-67
2024/02/10 03:35:24;;;;;;;1999.90;999.90;;;;;;;;;;5071685;28;20234;-67
2024/02/10 03:38:09;;;;;;;1999.90;999.90;;;;;;;;;;5069069;28;20216;-67
2024/02/10 03:40:54;;;;;;;1999.90;999.90;;;;;;;;;;5068121;28;20223;-67
2024/02/10 03:43:38;;;;;;;1999.90;999.90;;;;;;;;;;5072991;28;20721;-67
2024/02/10 03:46:25;;;;;;;1999.90;999.90;;;;;;;;;;5072999;28;20210;-67
2024/02/10 03:49:12;;;;;;;1999.90;999.90;;;;;;;;;;5068826;28;20208;-67
2024/02/10 03:51:57;;;;;;;1999.90;999.90;;;;;;;;;;5066879;28;20259;-67
2024/02/10 03:54:42;;;;;;;1999.90;999.90;;;;;;;;;;5057575;28;20616;-67
2024/02/10 03:57:30;;;;;;;1999.90;999.90;;;;;;;;;;5072739;28;20212;-67
2024/02/10 04:00:24;;;;;;;1999.90;999.90;;;;;;;;;;5072613;28;20570;-68
2024/02/10 04:03:12;;;;;;;1999.90;999.90;;;;;;;;;;5068076;28;20438;-67
2024/02/10 04:05:57;;;;;;;1999.90;999.90;;;;;;;;;;5071951;28;20213;-67
2024/02/10 04:08:45;;;;;;;1999.90;999.90;;;;;;;;;;5069017;28;20697;-67
2024/02/10 04:11:30;;;;;;;1999.90;999.90;;;;;;;;;;5072917;28;20258;-67
2024/02/10 04:14:20;;;;;;;1999.90;999.90;;;;;;;;;;5069865;28;20220;-67
2024/02/10 04:17:05;;;;;;;1999.90;999.90;;;;;;;;;;5071632;28;20216;-67
2024/02/10 04:19:53;;;;;;;1999.90;999.90;;;;;;;;;;5067806;28;20434;-66
2024/02/10 04:22:38;;;;;;;1999.90;999.90;;;;;;;;;;5068028;28;20726;-68
2024/02/10 04:25:23;;;;;;;1999.90;999.90;;;;;;;;;;5070055;28;20212;-67
2024/02/10 04:28:08;;;;;;;1999.90;999.90;;;;;;;;;;5065864;28;20224;-67
2024/02/10 04:30:53;;;;;;;1999.90;999.90;;;;;;;;;;5065363;28;20208;-67
2024/02/10 04:33:38;;;;;;;1999.90;999.90;;;;;;;;;;5071771;28;20240;-67
2024/02/10 04:36:24;;;;;;;1999.90;999.90;;;;;;;;;;5072664;28;20209;-67
2024/02/10 04:39:10;;;;;;;1999.90;999.90;;;;;;;;;;5068039;28;20212;-67
2024/02/10 04:41:55;;;;;;;1999.90;999.90;;;;;;;;;;5065534;28;20287;-67
2024/02/10 04:44:40;;;;;;;1999.90;999.90;;;;;;;;;;5070570;28;20268;-67
2024/02/10 04:47:25;;;;;;;1999.90;999.90;;;;;;;;;;5064461;28;20583;-67
2024/02/10 04:50:10;;;;;;;1999.90;999.90;;;;;;;;;;5068779;28;20208;-67
2024/02/10 04:52:56;;;;;;;1999.90;999.90;;;;;;;;;;5068394;28;20449;-66
2024/02/10 04:55:41;;;;;;;1999.90;999.90;;;;;;;;;;5061227;28;20704;-67
2024/02/10 04:58:26;;;;;;;1999.90;999.90;;;;;;;;;;5053011;28;20238;-67
2024/02/10 05:01:18;;;;;;;1999.90;999.90;;;;;;;;;;5058371;28;20229;-68
2024/02/10 05:04:05;;;;;;;1999.90;999.90;;;;;;;;;;5066588;28;20314;-68
2024/02/10 05:06:50;;;;;;;1999.90;999.90;;;;;;;;;;5064623;28;20212;-67
2024/02/10 05:09:36;;;;;;;1999.90;999.90;;;;;;;;;;5071104;28;20403;-67
2024/02/10 05:12:21;;;;;;;1999.90;999.90;;;;;;;;;;5054972;28;20446;-67
2024/02/10 05:15:09;;;;;;;1999.90;999.90;;;;;;;;;;5051854;28;20359;-67
2024/02/10 05:17:54;;;;;;;1999.90;999.90;;;;;;;;;;5056044;28;20336;-67
2024/02/10 05:20:40;;;;;;;1999.90;999.90;;;;;;;;;;5052566;28;20225;-67
2024/02/10 05:23:25;;;;;;;1999.90;999.90;;;;;;;;;;5068482;28;20583;-67
2024/02/10 05:26:12;;;;;;;1999.90;999.90;;;;;;;;;;5070692;28;20699;-68
2024/02/10 05:28:57;;;;;;;1999.90;999.90;;;;;;;;;;5051793;28;20213;-67
2024/02/10 05:31:42;;;;;;;1999.90;999.90;;;;;;;;;;5051831;28;20213;-68
2024/02/10 05:34:26;;;;;;;1999.90;999.90;;;;;;;;;;5062251;28;20251;-67
2024/02/10 05:37:11;;;;;;;1999.90;999.90;;;;;;;;;;5071859;28;20235;-66
2024/02/10 05:39:57;;;;;;;1999.90;999.90;;;;;;;;;;5069069;28;20290;-67
2024/02/10 05:42:45;;;;;;;1999.90;999.90;;;;;;;;;;5069206;28;20307;-67
2024/02/10 05:45:33;;;;;;;1999.90;999.90;;;;;;;;;;5067807;28;20399;-66
2024/02/10 05:48:20;;;;;;;1999.90;999.90;;;;;;;;;;5071046;28;20315;-67
2024/02/10 05:51:06;;;;;;;1999.90;999.90;;;;;;;;;;5064834;28;20359;-67
2024/02/10 05:53:51;;;;;;;1999.90;999.90;;;;;;;;;;5071797;28;20221;-67
2024/02/10 05:56:38;;;;;;;1999.90;999.90;;;;;;;;;;5070912;28;20247;-67
2024/02/10 05:59:25;;;;;;;1999.90;999.90;;;;;;;;;;5071225;28;20287;-68
2024/02/10 06:02:10;;;;;;;1999.90;999.90;;;;;;;;;;5071388;28;20347;-68
2024/02/10 06:04:55;;;;;;;1999.90;999.90;;;;;;;;;;5071502;28;20269;-66
2024/02/10 06:07:41;;;;;;;1999.90;999.90;;;;;;;;;;5071676;28;20200;-67
2024/02/10 06:10:26;;;;;;;1999.90;999.90;;;;;;;;;;5071317;28;20287;-67
2024/02/10 06:13:14;;;;;;;1999.90;999.90;;;;;;;;;;5071166;28;20736;-67
2024/02/10 06:16:00;;;;;;;1999.90;999.90;;;;;;;;;;5071301;28;20229;-67
2024/02/10 06:18:45;;;;;;;1999.90;999.90;;;;;;;;;;5071277;28;20339;-67
2024/02/10 06:21:33;;;;;;;1999.90;999.90;;;;;;;;;;5071349;28;20208;-67
2024/02/10 06:24:19;;;;;;;1999.90;999.90;;;;;;;;;;5066115;28;20705;-67
2024/02/10 06:27:05;;;;;;;1999.90;999.90;;;;;;;;;;5066699;28;20201;-66
2024/02/10 06:29:50;;;;;;;1999.90;999.90;;;;;;;;;;5070965;28;20205;-67
2024/02/10 06:32:37;;;;;;;1999.90;999.90;;;;;;;;;;5066839;28;20268;-67
2024/02/10 06:35:22;;;;;;;1999.90;999.90;;;;;;;;;;5071146;28;20220;-67
2024/02/10 06:38:07;;;;;;;1999.90;999.90;;;;;;;;;;5069225;28;20216;-67
2024/02/10 06:40:52;;;;;;;1999.90;999.90;;;;;;;;;;5066191;28;20271;-67
2024/02/10 06:43:38;;;;;;;1999.90;999.90;;;;;;;;;;5066935;28;20716;-67
2024/02/10 06:46:24;;;;;;;1999.90;999.90;;;;;;;;;;5066014;28;20332;-67
2024/02/10 06:49:11;;;;;;;1999.90;999.90;;;;;;;;;;5064475;28;20438;-67
2024/02/10 06:51:57;;;;;;;1999.90;999.90;;;;;;;;;;5066490;28;20212;-67
2024/02/10 06:54:44;;;;;;;1999.90;999.90;;;;;;;;;;5066692;28;20220;-66
2024/02/10 06:57:30;;;;;;;1999.90;999.90;;;;;;;;;;5070111;28;21016;-67
2024/02/10 07:00:16;;;;;;;1999.90;999.90;;;;;;;;;;5071241;28;20255;-67
2024/02/10 07:03:03;;;;;;;1999.90;999.90;;;;;;;;;;5064742;28;20232;-67
2024/02/10 07:05:52;;;;;;;1999.90;999.90;;;;;;;;;;5071572;28;20204;-68
2024/02/10 07:08:38;;;;;;;1999.90;999.90;;;;;;;;;;5067989;28;20713;-67
2024/02/10 07:11:23;;;;;;;1999.90;999.90;;;;;;;;;;5070445;28;20735;-67
2024/02/10 07:14:10;;;;;;;1999.90;999.90;;;;;;;;;;5070975;28;20216;-66
2024/02/10 07:16:57;;;;;;;1999.90;999.90;;;;;;;;;;5064541;28;20224;-67
2024/02/10 07:19:45;;;;;;;1999.90;999.90;;;;;;;;;;5073960;28;20700;-67
2024/02/10 07:22:34;;;;;;;1999.90;999.90;;;;;;;;;;5065758;28;20441;-68
2024/02/10 07:25:19;;;;;;;1999.90;999.90;;;;;;;;;;5065941;28;20208;-67
2024/02/10 07:28:05;;;;;;;1999.90;999.90;;;;;;;;;;5066027;28;20204;-67
2024/02/10 07:30:52;;;;;;;1999.90;999.90;;;;;;;;;;5069200;28;20204;-67
2024/02/10 07:33:37;;;;;;;1999.90;999.90;;;;;;;;;;5070462;28;20352;-67
2024/02/10 07:36:22;;;;;;;1999.90;999.90;;;;;;;;;;5073708;28;20715;-67
2024/02/10 07:39:08;;;;;;;1999.90;999.90;;;;;;;;;;5069243;28;20212;-67
2024/02/10 07:41:53;;;;;;;1999.90;999.90;;;;;;;;;;5070278;28;20514;-68
2024/02/10 07:44:37;;;;;;;1999.90;999.90;;;;;;;;;;5069885;28;20220;-66
2024/02/10 07:47:22;;;;;;;1999.90;999.90;;;;;;;;;;5069857;28;20214;-67
2024/02/10 07:50:08;;;;;;;1999.90;999.90;;;;;;;;;;5063020;28;20708;-67
2024/02/10 07:52:53;;;;;;;1999.90;999.90;;;;;;;;;;5064703;28;20236;-67
2024/02/10 07:55:42;;;;;;;1999.90;999.90;;;;;;;;;;5069271;28;20716;-67
2024/02/10 07:58:29;;;;;;;1999.90;999.90;;;;;;;;;;5066466;28;20298;-67
2024/02/10 08:01:14;;;;;;;1999.90;999.90;;;;;;;;;;5062734;28;20759;-67
2024/02/10 08:03:59;;;;;;;1999.90;999.90;;;;;;;;;;5069765;28;20799;-66
2024/02/10 08:06:45;;;;;;;1999.90;999.90;;;;;;;;;;5068126;28;20242;-65
2024/02/10 08:09:30;;;;;;;1999.90;999.90;;;;;;;;;;5073190;28;20216;-66
2024/02/10 08:12:22;;;;;;;1999.90;999.90;;;;;;;;;;5061185;28;20426;-66
2024/02/10 08:15:08;;;;;;;1999.90;999.90;;;;;;;;;;5065504;28;20320;-65
2024/02/10 08:17:58;;;;;;;1999.90;999.90;;;;;;;;;;5072252;28;20209;-66
2024/02/10 08:20:43;;;;;;;1999.90;999.90;;;;;;;;;;5071582;28;20209;-67
2024/02/10 08:23:28;;;;;;;1999.90;999.90;;;;;;;;;;5071389;28;20314;-65
2024/02/10 08:26:13;;;;;;;1999.90;999.90;;;;;;;;;;5061081;28;20205;-68
2024/02/10 08:28:59;;;;;;;1999.90;999.90;;;;;;;;;;5072085;28;20214;-68
2024/02/10 08:31:44;;;;;;;1999.90;999.90;;;;;;;;;;5069336;28;20418;-65
2024/02/10 08:34:30;;;;;;;1999.90;999.90;;;;;;;;;;5065626;28;20425;-68
2024/02/10 08:37:15;;;;;;;1999.90;999.90;;;;;;;;;;5065753;28;20833;-69
2024/02/10 08:40:03;;;;;;;1999.90;999.90;;;;;;;;;;5062896;28;20225;-69
2024/02/10 08:42:48;;;;;;;1999.90;999.90;;;;;;;;;;5055606;28;20260;-69
2024/02/10 08:45:34;;;;;;;1999.90;999.90;;;;;;;;;;5060439;28;20212;-69
2024/02/10 08:48:20;;;;;;;1999.90;999.90;;;;;;;;;;5062974;28;20582;-69
2024/02/10 08:51:05;;;;;;;1999.90;999.90;;;;;;;;;;5067988;28;20294;-68
2024/02/10 08:53:52;;;;;;;1999.90;999.90;;;;;;;;;;5067161;28;20354;-68
2024/02/10 08:56:41;;;;;;;1999.90;999.90;;;;;;;;;;5062130;28;20602;-69
2024/02/10 08:59:31;;;;;;;1999.90;999.90;;;;;;;;;;5055285;28;20280;-68
2024/02/10 09:02:18;;;;;;;1999.90;999.90;;;;;;;;;;5067262;28;20444;-70
2024/02/10 09:05:03;;;;;;;1999.90;999.90;;;;;;;;;;5065541;28;20206;-69
2024/02/10 09:07:48;;;;;;;1999.90;999.90;;;;;;;;;;5061053;28;20213;-69
2024/02/10 09:10:33;;;;;;;1999.90;999.90;;;;;;;;;;5052398;28;20227;-68
2024/02/10 09:13:19;;;;;;;1999.90;999.90;;;;;;;;;;5059823;28;20239;-68
2024/02/10 09:16:04;;;;;;;1999.90;999.90;;;;;;;;;;5052020;28;20338;-68
2024/02/10 09:18:50;;;;;;;1999.90;999.90;;;;;;;;;;5050912;28;20737;-67
2024/02/10 09:21:35;;;;;;;1999.90;999.90;;;;;;;;;;5051059;28;20786;-66
2024/02/10 09:24:22;;;;;;;1999.90;999.90;;;;;;;;;;5051955;28;20911;-67
2024/02/10 09:27:08;;;;;;;1999.90;999.90;;;;;;;;;;5069556;28;20222;-67
2024/02/10 09:29:54;;;;;;;1999.90;999.90;;;;;;;;;;5059081;28;20205;-67
2024/02/10 09:32:39;;;;;;;1999.90;999.90;;;;;;;;;;5052138;28;20602;-68
2024/02/10 09:35:25;;;;;;;1999.90;999.90;;;;;;;;;;5051657;28;20219;-68
2024/02/10 09:38:13;;;;;;;1999.90;999.90;;;;;;;;;;5051675;28;20282;-67
2024/02/10 09:40:57;;;;;;;1999.90;999.90;;;;;;;;;;5057648;28;20620;-67
2024/02/10 09:43:46;;;;;;;1999.90;999.90;;;;;;;;;;5051380;28;20847;-67
2024/02/10 09:46:35;;;;;;;1999.90;999.90;;;;;;;;;;5055575;28;20205;-67
2024/02/10 09:49:22;;;;;;;1999.90;999.90;;;;;;;;;;5055923;28;20295;-67
2024/02/10 09:52:09;;;;;;;1999.90;999.90;;;;;;;;;;5053702;28;20837;-67
2024/02/10 09:54:55;;;;;;;1999.90;999.90;;;;;;;;;;5065511;28;20691;-68
2024/02/10 09:57:46;;;;;;;1999.90;999.90;;;;;;;;;;5063155;28;20228;-68
2024/02/10 10:00:32;;;;;;;1999.90;999.90;;;;;;;;;;5063262;28;20218;-67
2024/02/10 10:03:17;;;;;;;1999.90;999.90;;;;;;;;;;5059580;28;20316;-68
2024/02/10 10:06:04;;;;;;;1999.90;999.90;;;;;;;;;;5055613;28;20598;-68
2024/02/10 10:08:51;;;;;;;1999.90;999.90;;;;;;;;;;5051215;28;20337;-68
2024/02/10 10:11:39;;;;;;;1999.90;999.90;;;;;;;;;;5050431;28;20444;-67
2024/02/10 10:14:24;;;;;;;1999.90;999.90;;;;;;;;;;5069830;28;20703;-66
2024/02/10 10:17:13;;;;;;;1999.90;999.90;;;;;;;;;;5059400;28;20224;-68
2024/02/10 10:20:04;;;;;;;1999.90;999.90;;;;;;;;;;5055031;28;20290;-68
2024/02/10 10:22:50;;;;;;;1999.90;999.90;;;;;;;;;;5053503;28;20278;-68
2024/02/10 10:25:36;;;;;;;1999.90;999.90;;;;;;;;;;5057725;28;20214;-68
2024/02/10 10:28:21;;;;;;;1999.90;999.90;;;;;;;;;;5050978;28;20203;-69
2024/02/10 10:31:06;;;;;;;1999.90;999.90;;;;;;;;;;5053653;28;20211;-69
2024/02/10 10:33:51;;;;;;;1999.90;999.90;;;;;;;;;;5056057;28;20862;-68
2024/02/10 10:36:36;;;;;;;1999.90;999.90;;;;;;;;;;5054858;28;20224;-68
2024/02/10 10:39:22;;;;;;;1999.90;999.90;;;;;;;;;;5054852;28;20216;-68
2024/02/10 10:42:11;;;;;;;1999.90;999.90;;;;;;;;;;5053851;28;20473;-68
2024/02/10 10:44:56;;;;;;;1999.90;999.90;;;;;;;;;;5054716;28;20251;-68
2024/02/10 10:47:45;;;;;;;1999.90;999.90;;;;;;;;;;5054870;28;20228;-68
2024/02/10 10:50:31;;;;;;;1999.90;999.90;;;;;;;;;;5054651;28;20707;-68
2024/02/10 10:53:17;;;;;;;1999.90;999.90;;;;;;;;;;5054801;28;20235;-67
2024/02/10 10:56:03;;;;;;;1999.90;999.90;;;;;;;;;;5054696;28;20332;-68
2024/02/10 10:58:51;;;;;;;1999.90;999.90;;;;;;;;;;5053360;28;20414;-68
2024/02/10 11:01:38;;;;;;;1999.90;999.90;;;;;;;;;;5054442;28;20216;-68
2024/02/10 11:04:25;;;;;;;1999.90;999.90;;;;;;;;;;5054477;28;20212;-69
2024/02/10 11:07:10;;;;;;;1999.90;999.90;;;;;;;;;;5066829;28;20270;-68
2024/02/10 11:09:55;;;;;;;1999.90;999.90;;;;;;;;;;5054082;28;20212;-68
2024/02/10 11:12:43;;;;;;;1999.90;999.90;;;;;;;;;;5060886;28;20231;-69
2024/02/10 11:15:30;;;;;;;1999.90;999.90;;;;;;;;;;5074219;28;20249;-69
2024/02/10 11:18:18;;;;;;;1999.90;999.90;;;;;;;;;;5073835;28;20773;-67
2024/02/10 11:21:07;;;;;;;1999.90;999.90;;;;;;;;;;5074091;28;20288;-68
2024/02/10 11:23:59;;;;;;;1999.90;999.90;;;;;;;;;;5072652;28;20239;-68
2024/02/10 11:26:45;;;;;;;1999.90;999.90;;;;;;;;;;5074280;28;20783;-67
2024/02/10 11:29:30;;;;;;;1999.90;999.90;;;;;;;;;;5073634;28;20396;-68
2024/02/10 11:32:18;;;;;;;1999.90;999.90;;;;;;;;;;5074008;28;20337;-68
2024/02/10 11:35:03;;;;;;;1999.90;999.90;;;;;;;;;;5059716;28;20208;-67
2024/02/10 11:37:48;;;;;;;1999.90;999.90;;;;;;;;;;5053571;28;20339;-68
2024/02/10 11:40:33;;;;;;;1999.90;999.90;;;;;;;;;;5055182;28;20696;-68
2024/02/10 11:43:19;;;;;;;1999.90;999.90;;;;;;;;;;5055622;28;20232;-69
2024/02/10 11:46:04;;;;;;;1999.90;999.90;;;;;;;;;;5059421;28;20739;-68
2024/02/10 11:48:53;;;;;;;1999.90;999.90;;;;;;;;;;5069242;28;20220;-68
2024/02/10 11:51:38;;;;;;;1999.90;999.90;;;;;;;;;;5064899;28;20427;-69
2024/02/10 11:54:26;;;;;;;1999.90;999.90;;;;;;;;;;5066203;28;20201;-68
2024/02/10 11:57:12;;;;;;;1999.90;999.90;;;;;;;;;;5065209;28;20216;-67
2024/02/10 11:59:58;;;;;;;1999.90;999.90;;;;;;;;;;5066602;28;20255;-67
2024/02/10 12:02:43;;;;;;;1999.90;999.90;;;;;;;;;;5068542;28;20371;-67
2024/02/10 12:05:30;;;;;;;1999.90;999.90;;;;;;;;;;5067786;28;20347;-67
2024/02/10 12:08:15;;;;;;;1999.90;999.90;;;;;;;;;;5069126;28;20199;-68
2024/02/10 12:11:00;;;;;;;1999.90;999.90;;;;;;;;;;5069157;28;20220;-67
2024/02/10 12:13:47;;;;;;;1999.90;999.90;;;;;;;;;;5069544;28;20240;-68
2024/02/10 12:16:33;;;;;;;1999.90;999.90;;;;;;;;;;5066131;28;20231;-67
2024/02/10 12:19:20;;;;;;;1999.90;999.90;;;;;;;;;;5065987;28;20223;-68
2024/02/10 12:22:09;;;;;;;1999.90;999.90;;;;;;;;;;5068468;28;20905;-69
2024/02/10 12:24:54;;;;;;;1999.90;999.90;;;;;;;;;;5067259;28;20615;-67
2024/02/10 12:27:39;;;;;;;1999.90;999.90;;;;;;;;;;5069967;28;20677;-68
2024/02/10 12:30:24;;;;;;;1999.90;999.90;;;;;;;;;;5068123;28;20282;-67
2024/02/10 12:33:10;;;;;;;1999.90;999.90;;;;;;;;;;5069501;28;20610;-68
2024/02/10 12:35:55;;;;;;;1999.90;999.90;;;;;;;;;;5067943;28;20298;-67
2024/02/10 12:38:42;;;;;;;1999.90;999.90;;;;;;;;;;5066142;28;20626;-68
2024/02/10 12:41:27;;;;;;;1999.90;999.90;;;;;;;;;;5067952;28;20495;-68
2024/02/10 12:44:12;;;;;;;1999.90;999.90;;;;;;;;;;5066836;28;20220;-68
2024/02/10 12:46:57;;;;;;;1999.90;999.90;;;;;;;;;;5068624;28;20216;-68
2024/02/10 12:49:43;;;;;;;1999.90;999.90;;;;;;;;;;5067240;28;20278;-67
2024/02/10 12:52:28;;;;;;;1999.90;999.90;;;;;;;;;;5064282;28;20310;-66
2024/02/10 12:55:14;;;;;;;1999.90;999.90;;;;;;;;;;5070050;28;20212;-68
2024/02/10 12:58:00;;;;;;;1999.90;999.90;;;;;;;;;;5062200;28;20336;-68
2024/02/10 13:00:45;;;;;;;1999.90;999.90;;;;;;;;;;5066259;28;20212;-68
2024/02/10 13:03:30;;;;;;;1999.90;999.90;;;;;;;;;;5067844;28;20735;-67
2024/02/10 13:06:15;;;;;;;1999.90;999.90;;;;;;;;;;5061363;28;20217;-69
2024/02/10 13:09:00;;;;;;;1999.90;999.90;;;;;;;;;;5061728;28;20279;-68
2024/02/10 13:11:48;;;;;;;1999.90;999.90;;;;;;;;;;5065216;28;20461;-69
2024/02/10 13:14:33;;;;;;;1999.90;999.90;;;;;;;;;;5071027;28;20207;-69
2024/02/10 13:17:18;;;;;;;1999.90;999.90;;;;;;;;;;5071742;28;20313;-69
2024/02/10 13:20:03;;;;;;;1999.90;999.90;;;;;;;;;;5071803;28;20282;-69
2024/02/10 13:22:48;;;;;;;1999.90;999.90;;;;;;;;;;5066267;28;20257;-70
2024/02/10 13:25:34;;;;;;;1999.90;999.90;;;;;;;;;;5071646;28;20688;-68
2024/02/10 13:28:20;;;;;;;1999.90;999.90;;;;;;;;;;5052793;28;20212;-69
2024/02/10 13:31:08;;;;;;;1999.90;999.90;;;;;;;;;;5050531;28;20403;-68
2024/02/10 13:33:53;;;;;;;1999.90;999.90;;;;;;;;;;5071779;28;20723;-70
2024/02/10 14:00:46;;;;;;;1999.90;999.90;;;;;;;;;;5071363;28;20465;-69
2024/02/10 14:03:34;;;;;;;1999.90;999.90;;;;;;;;;;5051558;28;20319;-69
2024/02/10 14:06:32;;;;;;;1999.90;999.90;;;;;;;;;;5059100;28;20215;-69
2024/02/10 14:09:21;;;;;;;1999.90;999.90;;;;;;;;;;5066263;28;20203;-69
2024/02/10 14:12:09;;;;;;;1999.90;999.90;;;;;;;;;;5071195;28;20273;-69
2024/02/10 14:14:53;;;;;;;1999.90;999.90;;;;;;;;;;5067759;28;20270;-69
2024/02/10 14:17:40;;;;;;;1999.90;999.90;;;;;;;;;;5067000;28;20228;-68
2024/02/10 14:20:26;;;;;;;1999.90;999.90;;;;;;;;;;5068019;28;20912;-69
2024/02/10 14:23:11;;;;;;;1999.90;999.90;;;;;;;;;;5071278;28;20606;-68
2024/02/10 14:25:57;;;;;;;1999.90;999.90;;;;;;;;;;5071181;28;20683;-68
2024/02/10 14:28:53;;;;;;;1999.90;999.90;;;;;;;;;;5070028;28;20338;-69
2024/02/10 14:31:44;;;;;;;1999.90;999.90;;;;;;;;;;5069580;28;20282;-69
2024/02/10 14:34:47;;;;;;;1999.90;999.90;;;;;;;;;;5071431;28;20738;-70
2024/02/10 14:37:46;;;;;;;1999.90;999.90;;;;;;;;;;5070020;28;20219;-69
2024/02/10 14:40:34;;;;;;;1999.90;999.90;;;;;;;;;;5065903;28;20590;-68
2024/02/10 14:43:19;;;;;;;1999.90;999.90;;;;;;;;;;5070419;28;20326;-69
2024/02/10 14:46:08;;;;;;;1999.90;999.90;;;;;;;;;;5071159;28;20712;-69
2024/02/10 14:48:53;;;;;;;1999.90;999.90;;;;;;;;;;5069812;28;20216;-68
2024/02/10 14:51:42;;;;;;;1999.90;999.90;;;;;;;;;;5070310;28;20203;-69
2024/02/10 14:54:27;;;;;;;1999.90;999.90;;;;;;;;;;5066452;28;20207;-70
2024/02/10 14:57:15;;;;;;;1999.90;999.90;;;;;;;;;;5068952;28;20254;-68
2024/02/10 15:00:00;;;;;;;1999.90;999.90;;;;;;;;;;5067227;28;20267;-71
2024/02/10 15:02:45;;;;;;;1999.90;999.90;;;;;;;;;;5069012;28;20238;-71
2024/02/10 15:05:30;;;;;;;1999.90;999.90;;;;;;;;;;5069845;28;20813;-71
2024/02/10 15:08:20;;;;;;;1999.90;999.90;;;;;;;;;;5069180;28;20506;-69
2024/02/10 15:11:06;;;;;;;1999.90;999.90;;;;;;;;;;5071507;28;20199;-73
2024/02/10 15:13:52;;;;;;;1999.90;999.90;;;;;;;;;;5070402;28;20747;-73
2024/02/10 15:16:39;;;;;;;1999.90;999.90;;;;;;;;;;5064698;28;20606;-73
2024/02/10 15:19:24;;;;;;;1999.90;999.90;;;;;;;;;;5064925;28;20203;-73
2024/02/10 15:22:09;;;;;;;1999.90;999.90;;;;;;;;;;5067334;28;20235;-74
2024/02/10 15:24:55;;;;;;;1999.90;999.90;;;;;;;;;;5068504;28;20224;-74
2024/02/10 15:27:44;;;;;;;1999.90;999.90;;;;;;;;;;5070385;28;20778;-71
2024/02/10 15:30:29;;;;;;;1999.90;999.90;;;;;;;;;;5065906;28;20211;-73
2024/02/10 15:33:16;;;;;;;1999.90;999.90;;;;;;;;;;5064033;28;20535;-73
2024/02/10 15:36:01;;;;;;;1999.90;999.90;;;;;;;;;;5070416;28;20329;-73
2024/02/10 15:38:46;;;;;;;1999.90;999.90;;;;;;;;;;5069786;28;20364;-73
2024/02/10 15:41:33;;;;;;;1999.90;999.90;;;;;;;;;;5069800;28;20216;-72
2024/02/10 15:44:20;;;;;;;1999.90;999.90;;;;;;;;;;5069249;28;20285;-71
2024/02/10 15:47:05;;;;;;;1999.90;999.90;;;;;;;;;;5070035;28;20588;-73
2024/02/10 15:49:54;;;;;;;1999.90;999.90;;;;;;;;;;5070144;28;20208;-72
2024/02/10 15:52:39;;;;;;;1999.90;999.90;;;;;;;;;;5063813;28;20848;-73